Flight Track Log - Related Links

Times and Time Zones

All times are in EDT time to prevent confusion due to time zone crossing. See the MRA602 flight status page for this flight to view local times or setup timezone preferences in your user account.

Time Position Orientation Groundspeed Altitude Reporting Facility
EDT Latitude Longitude Course Direction KTS MPH feet Rate Location/Type
Mon 07:43:06 PM 46.4986 -90.0158 118° Southeast 251 289 4,000  Level Minneapolis Center
Mon 07:44:06 PM 46.4714 -89.9422 115° Southeast 224 258 6,000 1,850 Climbing Minneapolis Center
Mon 07:45:06 PM 46.4481 -89.8683 117° Southeast 209 241 7,700 1,765 Climbing Minneapolis Center
Mon 07:46:05 PM 46.4206 -89.7889 115° Southeast 209 241 9,500 1,400 Climbing Minneapolis Center
Mon 07:47:06 PM 46.3950 -89.7092 115° Southeast 216 249 10,500 750 Climbing Minneapolis Center
Mon 07:48:05 PM 46.3650 -89.6181 115° Southeast 227 261 11,000 202 Climbing Minneapolis Center
Mon 07:49:05 PM 46.3347 -89.5239 114° Southeast 245 282 10,900 -50 Descending Minneapolis Center
Mon 07:50:06 PM 46.3042 -89.4267 118° Southeast 252 290 10,900 50 Level Minneapolis Center
Mon 07:51:06 PM 46.2675 -89.3272 120° Southeast 257 296 11,000 50 Climbing Minneapolis Center
Mon 07:52:05 PM 46.2306 -89.2339 115° Southeast 257 296 11,000  Level Minneapolis Center
Mon 07:53:05 PM 46.2000 -89.1403 120° Southeast 257 296 11,000  Level Minneapolis Center
Mon 07:54:06 PM 46.1656 -89.0528 116° Southeast 257 296 11,000  Level Minneapolis Center
Mon 07:55:06 PM 46.1325 -88.9567 118° Southeast 257 296 11,000  Level Minneapolis Center
Mon 07:56:06 PM 46.0997 -88.8664 119° Southeast 257 296 11,000  Level Minneapolis Center
Mon 07:57:05 PM 46.0647 -88.7764 116° Southeast 257 296 11,000  Level Minneapolis Center
Mon 07:58:05 PM 46.0317 -88.6806 117° Southeast 257 296 11,000 -496 Level Minneapolis Center
Mon 07:59:06 PM 45.9986 -88.5875 119° Southeast 257 296 10,000 -1,200 Descending Minneapolis Center
Mon 08:00:05 PM 45.9611 -88.4922 118° Southeast 257 296 8,600 -1,261 Descending Minneapolis Center
Mon 08:01:05 PM 45.9278 -88.4025 118° Southeast 257 296 7,500 -1,289 Descending Minneapolis Center
Mon 08:02:06 PM 45.8947 -88.3131 115° Southeast 257 296 6,000 -1,500 Descending Minneapolis Center
Mon 08:03:05 PM 45.8658 -88.2261 120° Southeast 257 296 4,500 -1,050 Descending Minneapolis Center
Mon 08:04:06 PM 45.8350 -88.1486 53° Northeast 249 287 3,900 -667 Descending Minneapolis Center
Mon 08:06:05 PM 45.8733 -88.0761 53° Northeast 260 299 2,500 -706 Descending Minneapolis Center

Login

Don't have an account? Register now (free) for customized features, flight alerts, and more!